createdAt,value
2023-01-23T00:00:06.950Z,3.33
2023-01-23T00:01:06.954Z,3.41
2023-01-23T00:02:07.012Z,3.32
2023-01-23T00:03:06.939Z,3.30
2023-01-23T00:04:06.913Z,3.35
2023-01-23T00:05:06.908Z,3.29
2023-01-23T00:06:06.957Z,3.32
2023-01-23T00:07:06.904Z,3.32
2023-01-23T00:08:06.894Z,3.35
2023-01-23T00:09:06.880Z,3.33
2023-01-23T00:10:06.867Z,3.27
2023-01-23T00:11:06.851Z,3.22
2023-01-23T00:12:06.898Z,3.20
2023-01-23T00:13:06.819Z,3.18
2023-01-23T00:14:06.841Z,3.20
2023-01-23T00:15:06.843Z,3.20
2023-01-23T00:16:06.831Z,3.20
2023-01-23T00:17:06.814Z,3.22
2023-01-23T00:18:07.042Z,3.20
2023-01-23T00:19:06.770Z,3.22
2023-01-23T00:20:06.783Z,3.23
2023-01-23T00:21:06.740Z,3.23
2023-01-23T00:22:06.748Z,3.22
2023-01-23T00:23:06.747Z,3.23
2023-01-23T00:24:06.725Z,3.25
2023-01-23T00:25:06.755Z,3.26
2023-01-23T00:26:06.708Z,3.25
2023-01-23T00:27:06.710Z,3.25
2023-01-23T00:28:06.992Z,3.23
2023-01-23T00:29:06.671Z,3.26
2023-01-23T00:30:06.679Z,3.30
2023-01-23T00:31:06.775Z,3.33
2023-01-23T00:32:06.687Z,3.27
2023-01-23T00:33:06.641Z,3.25
2023-01-23T00:34:06.716Z,3.29
2023-01-23T00:35:06.626Z,3.27
2023-01-23T00:36:07.312Z,3.29
2023-01-23T00:37:06.631Z,3.30
2023-01-23T00:38:07.397Z,3.29
2023-01-23T00:39:06.697Z,3.32
2023-01-23T00:40:06.567Z,3.32
2023-01-23T00:41:06.573Z,3.29
2023-01-23T00:42:06.537Z,3.29
2023-01-23T00:43:06.535Z,3.32
2023-01-23T00:44:06.525Z,3.27
2023-01-23T00:45:06.514Z,3.25
2023-01-23T00:46:06.522Z,3.26
2023-01-23T00:47:06.476Z,3.25
2023-01-23T00:48:06.482Z,3.25
2023-01-23T00:49:06.515Z,3.22
2023-01-23T00:50:06.451Z,3.20
2023-01-23T00:51:06.483Z,3.25
2023-01-23T00:52:06.478Z,3.17
2023-01-23T00:53:06.438Z,3.20
2023-01-23T00:54:06.447Z,3.18
2023-01-23T00:55:06.417Z,3.17
2023-01-23T00:56:06.421Z,3.17
2023-01-23T00:57:06.434Z,3.15
2023-01-23T00:58:06.409Z,3.15
2023-01-23T00:59:06.441Z,3.18
2023-01-23T01:00:06.353Z,3.17
2023-01-23T01:01:06.343Z,3.17
2023-01-23T01:02:06.346Z,3.20
2023-01-23T01:03:06.401Z,3.20
2023-01-23T01:04:06.392Z,3.17
2023-01-23T01:05:06.329Z,3.20
2023-01-23T01:06:06.293Z,3.17
2023-01-23T01:07:06.312Z,3.15
2023-01-23T01:08:06.333Z,3.15
2023-01-23T01:09:06.320Z,3.17
2023-01-23T01:10:06.260Z,3.18
2023-01-23T01:11:06.315Z,3.17
2023-01-23T01:12:06.257Z,3.14
2023-01-23T01:13:06.228Z,3.11
2023-01-23T01:14:06.303Z,3.09
2023-01-23T01:15:06.239Z,3.11
2023-01-23T01:16:06.232Z,3.12
2023-01-23T01:17:06.179Z,3.11
2023-01-23T01:18:06.199Z,3.14
2023-01-23T01:19:06.175Z,3.12
2023-01-23T01:20:06.186Z,3.11
2023-01-23T01:21:06.172Z,3.09
2023-01-23T01:22:06.141Z,3.11
2023-01-23T01:23:06.127Z,3.08
2023-01-23T01:24:06.113Z,3.08
2023-01-23T01:25:06.102Z,3.12
2023-01-23T01:26:06.106Z,3.12
2023-01-23T01:27:06.120Z,3.12
2023-01-23T01:28:06.091Z,3.12
2023-01-23T01:29:06.144Z,3.08
2023-01-23T01:30:06.135Z,3.00
2023-01-23T01:31:06.151Z,2.97
2023-01-23T01:32:06.035Z,2.96
2023-01-23T01:33:06.025Z,2.91
2023-01-23T01:34:06.058Z,2.91
2023-01-23T01:35:06.013Z,2.90
2023-01-23T01:36:05.990Z,2.89
2023-01-23T01:37:06.010Z,2.90
2023-01-23T01:38:07.832Z,2.89
2023-01-23T01:39:05.988Z,2.89
2023-01-23T01:40:05.999Z,2.94
2023-01-23T01:41:05.983Z,2.90
2023-01-23T01:42:05.999Z,2.93
2023-01-23T01:43:05.925Z,2.96
2023-01-23T01:44:05.935Z,2.99
2023-01-23T01:45:05.936Z,3.00
2023-01-23T01:46:05.916Z,3.00
2023-01-23T01:47:05.915Z,3.04
2023-01-23T01:48:06.020Z,3.05
2023-01-23T01:49:05.960Z,3.02
2023-01-23T01:50:05.869Z,3.02
2023-01-23T01:51:05.905Z,3.00
2023-01-23T01:52:05.887Z,3.00
2023-01-23T01:53:05.847Z,3.02
2023-01-23T01:54:05.843Z,3.05
2023-01-23T01:55:05.892Z,3.09
2023-01-23T01:56:05.792Z,3.09
2023-01-23T01:57:05.786Z,3.12
2023-01-23T01:58:05.778Z,3.11
2023-01-23T01:59:05.813Z,3.05
2023-01-23T02:00:05.807Z,2.96
2023-01-23T02:01:05.822Z,2.96
2023-01-23T02:02:05.746Z,2.96
2023-01-23T02:03:05.715Z,2.99
2023-01-23T02:04:05.738Z,3.00
2023-01-23T02:05:05.708Z,3.02
2023-01-23T02:06:05.724Z,3.07
2023-01-23T02:07:05.705Z,3.09
2023-01-23T02:08:05.688Z,3.12
2023-01-23T02:09:05.681Z,3.11
2023-01-23T02:10:05.693Z,3.11
2023-01-23T02:11:05.684Z,3.04
2023-01-23T02:12:05.703Z,2.99
2023-01-23T02:13:05.623Z,2.93
2023-01-23T02:14:05.613Z,2.97
2023-01-23T02:15:05.601Z,2.93
2023-01-23T02:16:05.644Z,2.97
2023-01-23T02:17:05.617Z,2.96
2023-01-23T02:18:05.570Z,2.91
2023-01-23T02:19:05.602Z,2.93
2023-01-23T02:20:05.558Z,2.93
2023-01-23T02:21:05.536Z,2.91
2023-01-23T02:22:05.565Z,2.90
2023-01-23T02:23:05.547Z,2.90
2023-01-23T02:24:05.503Z,2.87
2023-01-23T02:25:05.525Z,2.90
2023-01-23T02:26:05.485Z,2.90
2023-01-23T02:27:05.499Z,2.94
2023-01-23T02:28:05.529Z,2.93
2023-01-23T02:29:05.472Z,2.94
2023-01-23T02:30:05.503Z,3.00
2023-01-23T02:31:05.545Z,2.94
2023-01-23T02:32:05.522Z,2.91
2023-01-23T02:33:05.431Z,2.93
2023-01-23T02:34:05.446Z,2.90
2023-01-23T02:35:05.411Z,2.90
2023-01-23T02:36:05.402Z,2.94
2023-01-23T02:37:05.387Z,2.94
2023-01-23T02:38:05.381Z,2.94
2023-01-23T02:39:05.388Z,2.93
2023-01-23T02:40:05.349Z,2.91
2023-01-23T02:41:05.400Z,2.94
2023-01-23T02:42:05.355Z,2.94
2023-01-23T02:43:05.384Z,2.93
2023-01-23T02:44:05.308Z,2.87
2023-01-23T02:45:05.323Z,2.82
2023-01-23T02:46:05.389Z,2.82
2023-01-23T02:47:05.317Z,2.79
2023-01-23T02:48:05.291Z,2.82
2023-01-23T02:49:05.284Z,2.82
2023-01-23T02:50:05.309Z,2.82
2023-01-23T02:51:05.343Z,2.79
2023-01-23T02:52:05.261Z,2.76
2023-01-23T02:53:05.234Z,2.79
2023-01-23T02:54:05.241Z,2.76
2023-01-23T02:55:05.223Z,2.76
2023-01-23T02:56:05.198Z,2.75
2023-01-23T02:57:05.203Z,2.79
2023-01-23T02:58:05.210Z,2.76
2023-01-23T02:59:05.188Z,2.78
2023-01-23T03:00:05.148Z,2.76
2023-01-23T03:01:05.267Z,2.76
2023-01-23T03:02:05.215Z,2.75
2023-01-23T03:03:05.151Z,2.71
2023-01-23T03:04:05.105Z,2.73
2023-01-23T03:05:05.140Z,2.76
2023-01-23T03:06:05.095Z,2.73
2023-01-23T03:07:05.132Z,2.76
2023-01-23T03:08:05.156Z,2.78
2023-01-23T03:09:05.069Z,2.78
2023-01-23T03:10:05.058Z,2.76
2023-01-23T03:11:05.050Z,2.78
2023-01-23T03:12:05.053Z,2.78
2023-01-23T03:13:05.052Z,2.75
2023-01-23T03:14:05.031Z,2.76
2023-01-23T03:15:05.041Z,2.76
2023-01-23T03:16:05.071Z,2.71
2023-01-23T03:17:05.001Z,2.68
2023-01-23T03:18:05.002Z,2.69
2023-01-23T03:19:04.997Z,2.63
2023-01-23T03:20:04.960Z,2.65
2023-01-23T03:21:04.970Z,2.65
2023-01-23T03:22:04.932Z,2.65
2023-01-23T03:23:04.951Z,2.61
2023-01-23T03:24:04.928Z,2.61
2023-01-23T03:25:04.900Z,2.63
2023-01-23T03:26:04.924Z,2.63
2023-01-23T03:27:04.894Z,2.68
2023-01-23T03:28:04.921Z,2.69
2023-01-23T03:29:04.871Z,2.69
2023-01-23T03:30:04.862Z,2.65
2023-01-23T03:31:04.967Z,2.66
2023-01-23T03:32:04.834Z,2.66
2023-01-23T03:33:04.855Z,2.65
2023-01-23T03:34:04.831Z,2.69
2023-01-23T03:35:04.802Z,2.72
2023-01-23T03:36:04.785Z,2.71
2023-01-23T03:37:04.799Z,2.73
2023-01-23T03:38:04.793Z,2.72
2023-01-23T03:39:04.787Z,2.71
2023-01-23T03:40:04.784Z,2.65
2023-01-23T03:41:04.784Z,2.68
2023-01-23T03:42:04.726Z,2.68
2023-01-23T03:43:04.720Z,2.69
2023-01-23T03:44:04.754Z,2.72
2023-01-23T03:45:04.712Z,2.73
2023-01-23T03:46:04.761Z,2.76
2023-01-23T03:47:04.725Z,2.78
2023-01-23T03:48:04.683Z,2.79
2023-01-23T03:49:04.667Z,2.78
2023-01-23T03:50:04.687Z,2.75
2023-01-23T03:51:04.713Z,2.69
2023-01-23T03:52:04.651Z,2.69
2023-01-23T03:53:04.634Z,2.69
2023-01-23T03:54:04.611Z,2.68
2023-01-23T03:55:04.633Z,2.68
2023-01-23T03:56:04.717Z,2.65
2023-01-23T03:57:04.603Z,2.65
2023-01-23T03:58:04.585Z,2.66
2023-01-23T03:59:04.570Z,2.58
2023-01-23T04:00:04.616Z,2.58
2023-01-23T04:01:04.591Z,2.57
2023-01-23T04:02:04.559Z,2.55
2023-01-23T04:03:04.649Z,2.55
2023-01-23T04:04:04.529Z,2.57
2023-01-23T04:05:04.513Z,2.57
2023-01-23T04:06:04.501Z,2.53
2023-01-23T04:07:04.522Z,2.53
2023-01-23T04:08:04.495Z,2.54
2023-01-23T04:09:04.494Z,2.55
2023-01-23T04:10:04.476Z,2.61
2023-01-23T04:11:04.450Z,2.63
2023-01-23T04:12:04.439Z,2.66
2023-01-23T04:13:04.480Z,2.71
2023-01-23T04:14:04.448Z,2.75
2023-01-23T04:15:04.421Z,2.75
2023-01-23T04:16:04.429Z,2.76
2023-01-23T04:17:04.387Z,2.81
2023-01-23T04:18:04.384Z,2.81
2023-01-23T04:19:04.420Z,2.84
2023-01-23T04:20:04.364Z,2.82
2023-01-23T04:21:04.376Z,2.84
2023-01-23T04:22:04.367Z,2.79
2023-01-23T04:23:04.338Z,2.87
2023-01-23T04:24:04.332Z,2.87
2023-01-23T04:25:04.308Z,2.86
2023-01-23T04:26:04.313Z,2.86
2023-01-23T04:27:04.294Z,2.84
2023-01-23T04:28:04.293Z,2.84
2023-01-23T04:29:04.299Z,2.90
2023-01-23T04:30:04.287Z,2.84
2023-01-23T04:31:04.411Z,2.81
2023-01-23T04:32:04.238Z,2.82
2023-01-23T04:33:04.238Z,2.81
2023-01-23T04:34:04.240Z,2.81
2023-01-23T04:35:04.223Z,2.79
2023-01-23T04:36:04.229Z,2.84
2023-01-23T04:37:04.201Z,2.86
2023-01-23T04:38:04.173Z,2.86
2023-01-23T04:39:04.185Z,2.84
2023-01-23T04:40:04.187Z,2.86
2023-01-23T04:41:04.189Z,2.84
2023-01-23T04:42:04.150Z,2.84
2023-01-23T04:43:04.129Z,2.86
2023-01-23T04:44:04.133Z,2.84
2023-01-23T04:45:04.108Z,2.86
2023-01-23T04:46:04.156Z,2.87
2023-01-23T04:47:04.098Z,2.91
2023-01-23T04:48:04.056Z,2.97
2023-01-23T04:49:04.084Z,3.00
2023-01-23T04:50:04.062Z,3.04
2023-01-23T04:51:04.174Z,3.02
2023-01-23T04:52:04.036Z,3.05
2023-01-23T04:53:04.095Z,3.09
2023-01-23T04:54:04.068Z,3.11
2023-01-23T04:55:04.025Z,3.07
2023-01-23T04:56:04.007Z,3.05
2023-01-23T04:57:04.027Z,3.05
2023-01-23T04:58:04.003Z,3.00
2023-01-23T04:59:03.968Z,2.99
2023-01-23T05:00:03.967Z,3.00
2023-01-23T05:01:04.022Z,2.96
2023-01-23T05:02:04.142Z,2.90
2023-01-23T05:03:03.935Z,2.87
2023-01-23T05:04:03.969Z,2.87
2023-01-23T05:05:03.930Z,2.90
2023-01-23T05:06:03.941Z,2.89
2023-01-23T05:07:03.959Z,2.89
2023-01-23T05:08:03.879Z,2.89
2023-01-23T05:09:03.876Z,2.90
2023-01-23T05:10:03.870Z,2.89
2023-01-23T05:11:03.858Z,2.90
2023-01-23T05:12:03.867Z,2.96
2023-01-23T05:13:03.853Z,2.96
2023-01-23T05:14:03.841Z,2.94
2023-01-23T05:15:03.851Z,2.94
2023-01-23T05:16:03.898Z,2.93
2023-01-23T05:17:03.816Z,2.93
2023-01-23T05:18:03.839Z,2.91
2023-01-23T05:19:03.786Z,2.90
2023-01-23T05:20:03.781Z,2.90
2023-01-23T05:21:03.793Z,2.90
2023-01-23T05:22:03.741Z,2.91
2023-01-23T05:23:03.770Z,2.93
2023-01-23T05:24:03.750Z,2.93
2023-01-23T05:25:03.733Z,2.90
2023-01-23T05:26:03.742Z,2.91
2023-01-23T05:27:03.746Z,2.93
2023-01-23T05:28:03.692Z,2.91
2023-01-23T05:29:03.694Z,2.94
2023-01-23T05:30:03.686Z,2.91
2023-01-23T05:31:03.885Z,2.93
2023-01-23T05:32:03.631Z,2.94
2023-01-23T05:33:03.641Z,2.97
2023-01-23T05:34:03.617Z,2.96
2023-01-23T05:35:03.569Z,2.97
2023-01-23T05:36:03.603Z,2.94
2023-01-23T05:37:03.679Z,2.90
2023-01-23T05:38:03.578Z,2.87
2023-01-23T05:39:03.597Z,2.87
2023-01-23T05:40:03.560Z,2.86
2023-01-23T05:41:03.563Z,2.84
2023-01-23T05:42:03.546Z,2.91
2023-01-23T05:43:03.580Z,2.93
2023-01-23T05:44:03.520Z,2.94
2023-01-23T05:45:03.528Z,2.93
2023-01-23T05:46:03.603Z,2.97
2023-01-23T05:47:03.441Z,3.00
2023-01-23T05:48:03.539Z,3.05
2023-01-23T05:49:03.514Z,3.11
2023-01-23T05:50:03.421Z,3.09
2023-01-23T05:51:03.530Z,3.08
2023-01-23T05:52:03.436Z,3.07
2023-01-23T05:53:03.505Z,3.05
2023-01-23T05:54:03.516Z,3.07
2023-01-23T05:55:03.455Z,3.11
2023-01-23T05:56:03.449Z,3.14
2023-01-23T05:57:03.416Z,3.14
2023-01-23T05:58:03.402Z,3.15
2023-01-23T05:59:03.409Z,3.17
2023-01-23T06:00:03.428Z,3.22
2023-01-23T06:01:03.459Z,3.20
2023-01-23T06:02:03.366Z,3.23
2023-01-23T06:03:03.299Z,3.26
2023-01-23T06:04:03.287Z,3.27
2023-01-23T06:05:03.355Z,3.29
2023-01-23T06:06:03.345Z,3.32
2023-01-23T06:07:03.312Z,3.29
2023-01-23T06:08:03.267Z,3.27
2023-01-23T06:09:03.236Z,3.20
2023-01-23T06:10:03.220Z,3.17
2023-01-23T06:11:03.289Z,3.12
2023-01-23T06:12:03.207Z,3.17
2023-01-23T06:13:03.188Z,3.15
2023-01-23T06:14:03.264Z,3.14
2023-01-23T06:15:03.486Z,3.15
2023-01-23T06:16:03.289Z,3.17
2023-01-23T06:17:03.216Z,3.15
2023-01-23T06:18:03.283Z,3.18
2023-01-23T06:19:03.219Z,3.18
2023-01-23T06:20:03.190Z,3.22
2023-01-23T06:21:03.180Z,3.15
2023-01-23T06:22:03.197Z,3.12
2023-01-23T06:23:03.132Z,3.12
2023-01-23T06:24:03.163Z,3.08
2023-01-23T06:25:03.066Z,3.07
2023-01-23T06:26:03.129Z,3.05
2023-01-23T06:27:03.116Z,3.07
2023-01-23T06:28:03.064Z,3.11
2023-01-23T06:29:03.029Z,3.14
2023-01-23T06:30:03.088Z,3.15
2023-01-23T06:31:03.185Z,3.17
2023-01-23T06:32:02.995Z,3.22
2023-01-23T06:33:02.979Z,3.18
2023-01-23T06:34:03.017Z,3.18
2023-01-23T06:35:02.968Z,3.20
2023-01-23T06:36:02.996Z,3.15
2023-01-23T06:37:03.008Z,3.18
2023-01-23T06:38:03.007Z,3.22
2023-01-23T06:39:02.920Z,3.22
2023-01-23T06:40:02.969Z,3.23
2023-01-23T06:41:02.956Z,3.29
2023-01-23T06:42:02.951Z,3.29
2023-01-23T06:43:02.913Z,3.23
2023-01-23T06:44:02.902Z,3.18
2023-01-23T06:45:02.889Z,3.22
2023-01-23T06:46:02.876Z,3.26
2023-01-23T06:47:02.853Z,3.20
2023-01-23T06:48:02.917Z,3.23
2023-01-23T06:49:05.215Z,3.25
2023-01-23T06:50:02.860Z,3.25
2023-01-23T06:51:02.830Z,3.18
2023-01-23T06:52:02.808Z,3.17
2023-01-23T06:53:03.095Z,3.15
2023-01-23T06:54:02.871Z,3.17
2023-01-23T06:55:02.829Z,3.12
2023-01-23T06:56:02.778Z,3.12
2023-01-23T06:57:02.761Z,3.11
2023-01-23T06:58:02.765Z,3.09
2023-01-23T06:59:02.746Z,3.09
2023-01-23T07:00:02.798Z,3.07
2023-01-23T07:01:02.726Z,3.08
2023-01-23T07:02:02.705Z,3.11
2023-01-23T07:03:02.770Z,3.08
2023-01-23T07:04:02.708Z,3.08
2023-01-23T07:05:02.704Z,3.07
2023-01-23T07:06:02.686Z,3.05
2023-01-23T07:07:02.651Z,3.11
2023-01-23T07:08:04.790Z,3.08
2023-01-23T07:09:02.856Z,3.09
2023-01-23T07:10:02.632Z,3.09
2023-01-23T07:11:02.608Z,3.08
2023-01-23T07:12:02.627Z,3.08
2023-01-23T07:13:02.647Z,3.09
2023-01-23T07:14:02.580Z,3.09
2023-01-23T07:15:02.609Z,3.11
2023-01-23T07:16:02.625Z,3.07
2023-01-23T07:17:02.849Z,3.07
2023-01-23T07:18:02.554Z,3.12
2023-01-23T07:19:02.588Z,3.09
2023-01-23T07:20:02.548Z,3.07
2023-01-23T07:21:02.508Z,3.05
2023-01-23T07:22:02.507Z,3.04
2023-01-23T07:23:04.642Z,3.02
2023-01-23T07:24:02.495Z,3.00
2023-01-23T07:25:02.467Z,3.04
2023-01-23T07:26:02.731Z,3.05
2023-01-23T07:27:02.454Z,3.04
2023-01-23T07:28:02.437Z,3.00
2023-01-23T07:29:02.470Z,3.04
2023-01-23T07:30:02.423Z,3.05
2023-01-23T07:31:02.592Z,3.04
2023-01-23T07:32:02.432Z,3.07
2023-01-23T07:33:02.434Z,3.04
2023-01-23T07:34:02.408Z,3.07
2023-01-23T07:35:02.380Z,3.05
2023-01-23T07:36:02.372Z,3.07
2023-01-23T07:37:02.358Z,3.04
2023-01-23T07:38:02.374Z,3.00
2023-01-23T07:39:02.385Z,3.07
2023-01-23T07:40:04.381Z,3.05
2023-01-23T07:41:02.377Z,3.00
2023-01-23T07:42:02.388Z,3.00
2023-01-23T07:43:02.312Z,3.05
2023-01-23T07:44:02.295Z,3.05
2023-01-23T07:45:02.337Z,3.04
2023-01-23T07:46:02.387Z,3.05
2023-01-23T07:47:02.289Z,3.09
2023-01-23T07:48:02.285Z,3.07
2023-01-23T07:49:02.283Z,3.05
2023-01-23T07:50:02.217Z,3.07
2023-01-23T07:51:02.235Z,3.11
2023-01-23T07:52:02.231Z,3.17
2023-01-23T07:53:02.188Z,3.22
2023-01-23T07:54:02.171Z,3.26
2023-01-23T07:55:02.206Z,3.33
2023-01-23T07:56:02.163Z,3.35
2023-01-23T07:57:02.239Z,3.41
2023-01-23T07:58:02.199Z,3.44
2023-01-23T07:59:02.152Z,3.42
2023-01-23T08:00:02.122Z,3.41
2023-01-23T08:01:02.311Z,3.33
2023-01-23T08:02:02.189Z,3.36
2023-01-23T08:03:02.113Z,3.29
2023-01-23T08:04:02.193Z,3.29
2023-01-23T08:05:02.103Z,3.30
2023-01-23T08:06:02.059Z,3.32
2023-01-23T08:07:02.043Z,3.35
2023-01-23T08:08:12.985Z,3.36
2023-01-23T08:09:02.088Z,3.30
2023-01-23T08:10:02.052Z,3.30
2023-01-23T08:11:02.041Z,3.32
2023-01-23T08:12:01.991Z,3.33
2023-01-23T08:13:02.072Z,3.33
2023-01-23T08:14:01.971Z,3.36
2023-01-23T08:15:02.014Z,3.35
2023-01-23T08:16:02.777Z,3.35
2023-01-23T08:17:02.067Z,3.37
2023-01-23T08:18:02.165Z,3.41
2023-01-23T08:19:01.977Z,3.41
2023-01-23T08:20:02.583Z,3.41
2023-01-23T08:21:03.375Z,3.36
2023-01-23T08:22:02.079Z,3.35
2023-01-23T08:23:01.914Z,3.36
2023-01-23T08:24:01.904Z,3.35
2023-01-23T08:25:01.867Z,3.35
2023-01-23T08:26:01.886Z,3.32
2023-01-23T08:27:01.863Z,3.27
2023-01-23T08:28:01.857Z,3.29
2023-01-23T08:29:01.881Z,3.30
2023-01-23T08:30:01.944Z,3.33
2023-01-23T08:31:01.934Z,3.35
2023-01-23T08:32:01.932Z,3.37
2023-01-23T08:33:01.801Z,3.45
2023-01-23T08:34:01.798Z,3.54
2023-01-23T08:35:01.784Z,3.54
2023-01-23T08:36:02.598Z,3.62
2023-01-23T08:37:01.847Z,3.69
2023-01-23T08:38:01.809Z,3.72
2023-01-23T08:39:01.728Z,3.73
2023-01-23T08:40:01.769Z,3.70
2023-01-23T08:41:01.775Z,3.73
2023-01-23T08:42:01.712Z,3.73
2023-01-23T08:43:01.725Z,3.76
2023-01-23T08:44:01.811Z,3.78
2023-01-23T08:45:01.702Z,3.70
2023-01-23T08:46:01.903Z,3.56
2023-01-23T08:47:01.853Z,3.55
2023-01-23T08:48:01.664Z,3.45
2023-01-23T08:49:01.826Z,3.45
2023-01-23T08:50:01.691Z,3.46
2023-01-23T08:51:01.781Z,3.46
2023-01-23T08:52:01.638Z,3.41
2023-01-23T08:53:01.742Z,3.41
2023-01-23T08:54:01.627Z,3.41
2023-01-23T08:55:01.676Z,3.36
2023-01-23T08:56:01.611Z,3.32
2023-01-23T08:57:01.627Z,3.30
2023-01-23T08:58:01.594Z,3.29
2023-01-23T08:59:01.562Z,3.29
2023-01-23T09:00:01.590Z,3.29
2023-01-23T09:01:01.581Z,3.32
2023-01-23T09:02:01.625Z,3.35
2023-01-23T09:03:01.548Z,3.44
2023-01-23T09:04:01.502Z,3.42
2023-01-23T09:05:01.464Z,3.46
2023-01-23T09:06:01.460Z,3.45
2023-01-23T09:07:01.462Z,3.46
2023-01-23T09:08:02.321Z,3.44
2023-01-23T09:09:01.435Z,3.44
2023-01-23T09:10:01.437Z,3.46
2023-01-23T09:11:01.420Z,3.52
2023-01-23T09:12:01.460Z,3.49
2023-01-23T09:13:01.392Z,3.52
2023-01-23T09:14:01.401Z,3.55
2023-01-23T09:15:01.412Z,3.51
2023-01-23T09:16:01.357Z,3.54
2023-01-23T09:17:01.384Z,3.55
2023-01-23T09:18:01.385Z,3.52
2023-01-23T09:19:01.317Z,3.54
2023-01-23T09:20:01.363Z,3.54
2023-01-23T09:21:01.313Z,3.46
2023-01-23T09:22:01.316Z,3.42
2023-01-23T09:23:01.315Z,3.37
2023-01-23T09:24:01.286Z,3.42
2023-01-23T09:25:01.274Z,3.42
2023-01-23T09:26:01.272Z,3.42
2023-01-23T09:27:01.276Z,3.36
2023-01-23T09:28:01.241Z,3.37
2023-01-23T09:29:01.263Z,3.41
2023-01-23T09:30:01.254Z,3.30
2023-01-23T09:31:01.270Z,3.32
2023-01-23T09:32:01.276Z,3.35
2023-01-23T09:33:01.565Z,3.37
2023-01-23T09:34:01.188Z,3.36
2023-01-23T09:35:01.213Z,3.32
2023-01-23T09:36:01.183Z,3.32
2023-01-23T09:37:01.146Z,3.37
2023-01-23T09:38:01.172Z,3.41
2023-01-23T09:39:01.167Z,3.41
2023-01-23T09:40:01.153Z,3.45
2023-01-23T09:41:01.111Z,3.46
2023-01-23T09:42:01.178Z,3.44
2023-01-23T09:43:01.430Z,3.49
2023-01-23T09:44:01.113Z,3.51
2023-01-23T09:45:01.101Z,3.52
2023-01-23T09:46:01.165Z,3.46
2023-01-23T09:47:01.133Z,3.51
2023-01-23T09:48:01.071Z,3.51
2023-01-23T09:49:01.061Z,3.46
2023-01-23T09:50:01.042Z,3.44
2023-01-23T09:51:01.055Z,3.45
2023-01-23T09:52:01.008Z,3.49
2023-01-23T09:53:00.998Z,3.49
2023-01-23T09:54:00.995Z,3.52
2023-01-23T09:55:01.025Z,3.55
2023-01-23T09:56:01.010Z,3.52
2023-01-23T09:57:00.951Z,3.54
2023-01-23T09:58:00.992Z,3.54
2023-01-23T09:59:00.951Z,3.56
2023-01-23T10:00:01.332Z,3.62
2023-01-23T10:01:00.910Z,3.64
2023-01-23T10:02:00.990Z,3.60
2023-01-23T10:03:00.941Z,3.59
2023-01-23T10:04:00.927Z,3.54
2023-01-23T10:05:00.904Z,3.48
2023-01-23T10:06:00.869Z,3.49
2023-01-23T10:07:00.873Z,3.52
2023-01-23T10:08:00.861Z,3.52
2023-01-23T10:09:00.841Z,3.62
2023-01-23T10:10:00.852Z,3.55
2023-01-23T10:11:00.834Z,3.54
2023-01-23T10:12:00.823Z,3.54
2023-01-23T10:13:00.816Z,3.55
2023-01-23T10:14:00.798Z,3.59
2023-01-23T10:15:00.788Z,3.60
2023-01-23T10:16:00.765Z,3.55
2023-01-23T10:17:00.800Z,3.56
2023-01-23T10:18:00.834Z,3.62
2023-01-23T10:19:00.844Z,3.62
2023-01-23T10:20:00.772Z,3.66
2023-01-23T10:21:00.789Z,3.69
2023-01-23T10:22:00.777Z,3.70
2023-01-23T10:23:00.746Z,3.73
2023-01-23T10:24:00.721Z,3.74
2023-01-23T10:25:00.701Z,3.80
2023-01-23T10:26:00.672Z,3.74
2023-01-23T10:27:00.674Z,3.67
2023-01-23T10:28:00.671Z,3.62
2023-01-23T10:29:00.675Z,3.56
2023-01-23T10:30:00.663Z,3.56
2023-01-23T10:31:00.784Z,3.59
2023-01-23T10:32:00.719Z,3.60
2023-01-23T10:33:00.615Z,3.66
2023-01-23T10:34:03.439Z,3.70
2023-01-23T10:35:00.605Z,3.72
2023-01-23T10:36:00.594Z,3.73
2023-01-23T10:37:00.569Z,3.74
2023-01-23T10:38:00.577Z,3.67
2023-01-23T10:39:00.681Z,3.67
2023-01-23T10:40:00.545Z,3.64
2023-01-23T10:41:00.546Z,3.55
2023-01-23T10:42:02.754Z,3.55
2023-01-23T10:43:00.502Z,3.60
2023-01-23T10:44:00.510Z,3.67
2023-01-23T10:45:00.510Z,3.73
2023-01-23T10:46:00.518Z,3.85
2023-01-23T10:47:00.479Z,3.81
2023-01-23T10:48:03.615Z,3.74
2023-01-23T10:49:00.464Z,3.70
2023-01-23T10:50:00.559Z,3.72
2023-01-23T10:51:00.568Z,3.76
2023-01-23T10:52:00.422Z,3.76
2023-01-23T10:53:00.423Z,3.78
2023-01-23T10:54:04.608Z,3.80
2023-01-23T10:55:00.427Z,3.82
2023-01-23T10:56:00.396Z,3.85
2023-01-23T10:57:00.407Z,3.90
2023-01-23T10:58:00.403Z,3.91
2023-01-23T10:59:00.388Z,3.91
2023-01-23T11:00:00.390Z,3.98
2023-01-23T11:01:00.351Z,3.94
2023-01-23T11:02:01.095Z,3.96
2023-01-23T11:03:00.333Z,3.84
2023-01-23T11:04:00.341Z,3.82
2023-01-23T11:05:00.317Z,3.84
2023-01-23T11:06:00.298Z,3.87
2023-01-23T11:07:00.266Z,3.92
2023-01-23T11:08:00.268Z,3.99
2023-01-23T11:09:00.338Z,4.02
2023-01-23T11:10:00.317Z,4.06
2023-01-23T11:11:00.223Z,4.05
2023-01-23T11:12:00.253Z,4.08
2023-01-23T11:13:00.881Z,4.12
2023-01-23T11:14:00.238Z,4.12
2023-01-23T11:15:00.240Z,4.08
2023-01-23T11:16:00.284Z,4.05
2023-01-23T11:17:00.234Z,4.03
2023-01-23T11:18:00.204Z,4.03
2023-01-23T11:19:00.159Z,4.08
2023-01-23T11:20:00.146Z,4.16
2023-01-23T11:21:00.563Z,4.21
2023-01-23T11:22:00.173Z,4.21
2023-01-23T11:23:00.253Z,4.21
2023-01-23T11:24:03.862Z,4.24
2023-01-23T11:25:00.183Z,4.23
2023-01-23T11:26:02.000Z,4.23
2023-01-23T11:27:00.098Z,4.26
2023-01-23T11:28:00.077Z,4.30
2023-01-23T11:29:00.750Z,4.31
2023-01-23T11:30:00.261Z,4.35
2023-01-23T11:31:12.501Z,4.38
2023-01-23T11:32:00.723Z,4.36
2023-01-23T11:33:00.028Z,4.42
2023-01-23T11:34:00.060Z,4.35
2023-01-23T11:34:59.998Z,4.27
2023-01-23T11:35:59.992Z,4.27
2023-01-23T11:36:59.985Z,4.27
2023-01-23T11:38:00.016Z,4.30
2023-01-23T11:38:59.968Z,4.31
2023-01-23T11:39:59.966Z,4.31
2023-01-23T11:40:59.984Z,4.38
2023-01-23T11:41:59.954Z,4.45
2023-01-23T11:42:59.989Z,4.41
2023-01-23T11:43:59.900Z,4.38
2023-01-23T11:45:00.017Z,4.38
2023-01-23T11:45:59.960Z,4.27
2023-01-23T11:46:59.900Z,4.28
2023-01-23T11:47:59.860Z,4.35
2023-01-23T11:48:59.875Z,4.35
2023-01-23T11:49:59.851Z,4.34
2023-01-23T11:50:59.887Z,4.31
2023-01-23T11:51:59.829Z,4.35
2023-01-23T11:52:59.816Z,4.30
2023-01-23T11:53:59.832Z,4.31
2023-01-23T11:54:59.930Z,4.35
2023-01-23T11:55:59.904Z,4.34
2023-01-23T11:56:59.879Z,4.41
2023-01-23T11:57:59.764Z,4.45
2023-01-23T11:58:59.793Z,4.42
2023-01-23T11:59:59.762Z,4.42
2023-01-23T12:00:59.777Z,4.43
2023-01-23T12:02:03.456Z,4.48
2023-01-23T12:02:59.792Z,4.49
2023-01-23T12:03:59.769Z,4.48
2023-01-23T12:04:59.711Z,4.49
2023-01-23T12:06:17.636Z,4.53
2023-01-23T12:06:59.715Z,4.49
2023-01-23T12:07:59.698Z,4.48
2023-01-23T12:08:59.965Z,4.45
2023-01-23T12:09:59.671Z,4.46
2023-01-23T12:10:59.647Z,4.49
2023-01-23T12:11:59.616Z,4.46
2023-01-23T12:12:59.669Z,4.46
2023-01-23T12:13:59.675Z,4.51
2023-01-23T12:14:59.620Z,4.51
2023-01-23T12:15:59.671Z,4.51
2023-01-23T12:16:59.712Z,4.53
2023-01-23T12:18:59.758Z,4.60
2023-01-23T12:19:59.803Z,4.61
2023-01-23T12:20:59.599Z,4.63
2023-01-23T12:21:59.522Z,4.60
2023-01-23T12:22:59.539Z,4.59
2023-01-23T12:23:59.502Z,4.57
2023-01-23T12:24:59.542Z,4.56
2023-01-23T12:25:59.535Z,4.57
2023-01-23T12:26:59.738Z,4.59
2023-01-23T12:27:59.470Z,4.54
2023-01-23T12:28:59.485Z,4.53
2023-01-23T12:29:59.437Z,4.48
2023-01-23T12:30:59.522Z,4.42
2023-01-23T12:31:59.554Z,4.42
2023-01-23T12:32:59.439Z,4.43
2023-01-23T12:33:59.420Z,4.43
2023-01-23T12:34:59.484Z,4.45
2023-01-23T12:35:59.395Z,4.42
2023-01-23T12:37:10.251Z,4.36
2023-01-23T12:37:59.472Z,4.35
2023-01-23T12:38:59.365Z,4.30
2023-01-23T12:39:59.506Z,4.35
2023-01-23T12:40:59.351Z,4.36
2023-01-23T12:41:59.354Z,4.41
2023-01-23T12:42:59.357Z,4.43
2023-01-23T12:43:59.299Z,4.41
2023-01-23T12:44:59.332Z,4.38
2023-01-23T12:45:59.302Z,4.38
2023-01-23T12:46:59.351Z,4.36
2023-01-23T12:48:00.847Z,4.38
2023-01-23T12:48:59.292Z,4.41
2023-01-23T12:49:59.246Z,4.43
2023-01-23T12:50:59.291Z,4.38
2023-01-23T12:51:59.285Z,4.43
2023-01-23T12:52:59.243Z,4.45
2023-01-23T12:53:59.250Z,4.48
2023-01-23T12:54:59.236Z,4.53
2023-01-23T12:55:59.208Z,4.54
2023-01-23T12:56:59.255Z,4.59
2023-01-23T12:57:59.942Z,4.61
2023-01-23T12:58:59.165Z,4.69
2023-01-23T12:59:59.202Z,4.69
2023-01-23T13:00:59.246Z,4.72
2023-01-23T13:01:59.284Z,4.79
2023-01-23T13:02:59.169Z,4.82
2023-01-23T13:03:59.157Z,4.77
2023-01-23T13:04:59.139Z,4.75
2023-01-23T13:05:59.095Z,4.78
2023-01-23T13:06:59.142Z,4.77
2023-01-23T13:07:59.066Z,4.75
2023-01-23T13:09:12.093Z,4.78
2023-01-23T13:09:59.063Z,4.78
2023-01-23T13:10:59.066Z,4.83
2023-01-23T13:11:59.060Z,4.85
2023-01-23T13:12:59.051Z,4.88
2023-01-23T13:14:00.777Z,4.94
2023-01-23T13:15:13.075Z,4.96
2023-01-23T13:15:59.058Z,5.00
2023-01-23T13:16:59.090Z,4.98
2023-01-23T13:17:59.456Z,4.97
2023-01-23T13:18:59.015Z,4.88